MMZO/ZLO METAR and TAF weather

Enter ICAO airport designator
Station Type Date Time Source
MMZO METAR 2021/05/14 22:40 UTC NOAA

MMZO 142240Z 27010KT 10SM SCT020 SCT100 30/25 A2975 RMK 8/130


Station Type Date Time Source
MMZO Decoded METAR 2021/05/14 22:40 UTC NOAA

Manzanillo International , Mexico (MMZO) 19-09N 104-34W
May 14, 2021 - 06:40 PM EDT / 2021.05.14 2240 UTC
Wind: from the W (270 degrees) at 12 MPH (10 KT):0
Visibility: 10 mile(s):0
Sky conditions: partly cloudy
Temperature: 86 F (30 C)
Heat index: 96.8 F (36.0 C):1
Dew Point: 77 F (25 C)
Relative Humidity: 74%
Pressure (altimeter): 29.75 in. Hg (1007 hPa)
ob: MMZO 142240Z 27010KT 10SM SCT020 SCT100 30/25 A2975 RMK 8/130
cycle: 22

Station Type Date Time Source
MMZO TAF 2021/05/14 18:54 UTC NOAA

TAF MMZO 141652Z 1418/1518 24012KT P6SM SCT020 BKN100 BKN250
TEMPO 1418/1422 BKN020
FM150600 00000KT P6SM SCT020
FM151700 23010KT P6SM SCT020 BKN120 BKN25

Example: see airport list